sensor_id;sensor_type;location;lat;lon;timestamp;temperature;humidity
16076;DHT22;8142;48.242;11.644;2023-03-03T00:01:08;2.90;99.90
16076;DHT22;8142;48.242;11.644;2023-03-03T00:03:34;2.90;99.90
16076;DHT22;8142;48.242;11.644;2023-03-03T00:06:02;2.90;99.90
16076;DHT22;8142;48.242;11.644;2023-03-03T00:08:28;2.80;99.90
16076;DHT22;8142;48.242;11.644;2023-03-03T00:10:54;2.80;99.90
16076;DHT22;8142;48.242;11.644;2023-03-03T00:13:22;2.90;99.90
16076;DHT22;8142;48.242;11.644;2023-03-03T00:15:49;2.80;99.90
16076;DHT22;8142;48.242;11.644;2023-03-03T00:18:25;2.80;99.90
16076;DHT22;8142;48.242;11.644;2023-03-03T00:20:58;2.80;99.90
16076;DHT22;8142;48.242;11.644;2023-03-03T00:23:30;2.80;99.90
16076;DHT22;8142;48.242;11.644;2023-03-03T00:25:57;2.80;99.90
16076;DHT22;8142;48.242;11.644;2023-03-03T00:28:40;2.80;99.90
16076;DHT22;8142;48.242;11.644;2023-03-03T00:31:25;2.80;99.90
16076;DHT22;8142;48.242;11.644;2023-03-03T00:33:54;2.80;99.90
16076;DHT22;8142;48.242;11.644;2023-03-03T00:41:48;2.70;99.90
16076;DHT22;8142;48.242;11.644;2023-03-03T00:44:42;2.70;99.90
16076;DHT22;8142;48.242;11.644;2023-03-03T00:53:00;2.70;99.90
16076;DHT22;8142;48.242;11.644;2023-03-03T00:55:27;2.70;99.90
16076;DHT22;8142;48.242;11.644;2023-03-03T00:57:53;2.60;99.90
16076;DHT22;8142;48.242;11.644;2023-03-03T01:00:19;2.70;99.90
16076;DHT22;8142;48.242;11.644;2023-03-03T01:02:45;2.60;99.90
16076;DHT22;8142;48.242;11.644;2023-03-03T01:05:15;2.60;99.90
16076;DHT22;8142;48.242;11.644;2023-03-03T01:07:41;2.70;99.90
16076;DHT22;8142;48.242;11.644;2023-03-03T01:10:09;2.60;99.90
16076;DHT22;8142;48.242;11.644;2023-03-03T01:12:35;2.60;99.90
16076;DHT22;8142;48.242;11.644;2023-03-03T01:15:08;2.60;99.90
16076;DHT22;8142;48.242;11.644;2023-03-03T01:17:35;2.60;99.90
16076;DHT22;8142;48.242;11.644;2023-03-03T01:20:02;2.60;99.90
16076;DHT22;8142;48.242;11.644;2023-03-03T01:22:28;2.60;99.90
16076;DHT22;8142;48.242;11.644;2023-03-03T01:24:54;2.50;99.90
16076;DHT22;8142;48.242;11.644;2023-03-03T01:27:20;2.50;99.90
16076;DHT22;8142;48.242;11.644;2023-03-03T01:29:45;2.50;99.90
16076;DHT22;8142;48.242;11.644;2023-03-03T01:32:11;2.50;99.90
16076;DHT22;8142;48.242;11.644;2023-03-03T01:34:37;2.50;99.90
16076;DHT22;8142;48.242;11.644;2023-03-03T01:37:03;2.50;99.90
16076;DHT22;8142;48.242;11.644;2023-03-03T01:39:29;2.50;99.90
16076;DHT22;8142;48.242;11.644;2023-03-03T01:41:55;2.50;99.90
16076;DHT22;8142;48.242;11.644;2023-03-03T01:44:21;2.50;99.90
16076;DHT22;8142;48.242;11.644;2023-03-03T01:46:54;2.50;99.90
16076;DHT22;8142;48.242;11.644;2023-03-03T01:49:29;2.50;99.90
16076;DHT22;8142;48.242;11.644;2023-03-03T01:52:00;2.50;99.90
16076;DHT22;8142;48.242;11.644;2023-03-03T01:54:37;2.50;99.90
16076;DHT22;8142;48.242;11.644;2023-03-03T01:57:12;2.50;99.90
16076;DHT22;8142;48.242;11.644;2023-03-03T01:59:46;2.50;99.90
16076;DHT22;8142;48.242;11.644;2023-03-03T02:02:12;2.40;99.90
16076;DHT22;8142;48.242;11.644;2023-03-03T02:04:38;2.40;99.90
16076;DHT22;8142;48.242;11.644;2023-03-03T02:07:08;2.40;99.90
16076;DHT22;8142;48.242;11.644;2023-03-03T02:09:41;2.40;99.90
16076;DHT22;8142;48.242;11.644;2023-03-03T02:12:11;2.40;99.90
16076;DHT22;8142;48.242;11.644;2023-03-03T02:14:38;2.40;99.90
16076;DHT22;8142;48.242;11.644;2023-03-03T02:17:04;2.60;99.90
16076;DHT22;8142;48.242;11.644;2023-03-03T02:22:16;2.50;99.90
16076;DHT22;8142;48.242;11.644;2023-03-03T02:24:50;2.50;99.90
16076;DHT22;8142;48.242;11.644;2023-03-03T02:27:18;2.50;99.90
16076;DHT22;8142;48.242;11.644;2023-03-03T02:29:44;2.50;99.90
16076;DHT22;8142;48.242;11.644;2023-03-03T02:32:10;2.60;99.90
16076;DHT22;8142;48.242;11.644;2023-03-03T02:34:48;2.50;99.90
16076;DHT22;8142;48.242;11.644;2023-03-03T02:37:14;2.50;99.90
16076;DHT22;8142;48.242;11.644;2023-03-03T02:39:42;2.50;99.90
16076;DHT22;8142;48.242;11.644;2023-03-03T02:42:20;2.50;99.90
16076;DHT22;8142;48.242;11.644;2023-03-03T02:44:48;2.50;99.90
16076;DHT22;8142;48.242;11.644;2023-03-03T02:47:14;2.50;99.90
16076;DHT22;8142;48.242;11.644;2023-03-03T02:49:40;2.40;99.90
16076;DHT22;8142;48.242;11.644;2023-03-03T02:52:08;2.40;99.90
16076;DHT22;8142;48.242;11.644;2023-03-03T02:54:35;2.40;99.90
16076;DHT22;8142;48.242;11.644;2023-03-03T02:57:01;2.40;99.90
16076;DHT22;8142;48.242;11.644;2023-03-03T02:59:27;2.40;99.90
16076;DHT22;8142;48.242;11.644;2023-03-03T03:01:54;2.40;99.90
16076;DHT22;8142;48.242;11.644;2023-03-03T03:04:26;2.30;99.90
16076;DHT22;8142;48.242;11.644;2023-03-03T03:06:53;2.40;99.90
16076;DHT22;8142;48.242;11.644;2023-03-03T03:09:21;2.30;99.90
16076;DHT22;8142;48.242;11.644;2023-03-03T03:11:47;2.40;99.90
16076;DHT22;8142;48.242;11.644;2023-03-03T03:14:13;2.40;99.90
16076;DHT22;8142;48.242;11.644;2023-03-03T03:16:40;2.40;99.90
16076;DHT22;8142;48.242;11.644;2023-03-03T03:19:06;2.40;99.90
16076;DHT22;8142;48.242;11.644;2023-03-03T03:21:33;2.40;99.90
16076;DHT22;8142;48.242;11.644;2023-03-03T03:23:59;2.40;99.90
16076;DHT22;8142;48.242;11.644;2023-03-03T03:26:25;2.50;99.90
16076;DHT22;8142;48.242;11.644;2023-03-03T03:28:51;2.50;99.90
16076;DHT22;8142;48.242;11.644;2023-03-03T03:31:18;2.50;99.90
16076;DHT22;8142;48.242;11.644;2023-03-03T03:33:44;2.50;99.90
16076;DHT22;8142;48.242;11.644;2023-03-03T03:36:10;2.60;99.90
16076;DHT22;8142;48.242;11.644;2023-03-03T03:38:36;2.60;99.90
16076;DHT22;8142;48.242;11.644;2023-03-03T03:41:04;2.60;99.90
16076;DHT22;8142;48.242;11.644;2023-03-03T03:43:31;2.60;99.90
16076;DHT22;8142;48.242;11.644;2023-03-03T03:45:57;2.60;99.90
16076;DHT22;8142;48.242;11.644;2023-03-03T03:48:24;2.60;99.90
16076;DHT22;8142;48.242;11.644;2023-03-03T03:50:50;2.60;99.90
16076;DHT22;8142;48.242;11.644;2023-03-03T03:53:17;2.70;99.90
16076;DHT22;8142;48.242;11.644;2023-03-03T03:55:43;2.70;99.90
16076;DHT22;8142;48.242;11.644;2023-03-03T03:58:13;2.70;99.90
16076;DHT22;8142;48.242;11.644;2023-03-03T04:00:40;2.70;99.90
16076;DHT22;8142;48.242;11.644;2023-03-03T04:03:07;2.70;99.90
16076;DHT22;8142;48.242;11.644;2023-03-03T04:05:33;2.80;99.90
16076;DHT22;8142;48.242;11.644;2023-03-03T04:07:59;2.70;99.90
16076;DHT22;8142;48.242;11.644;2023-03-03T04:10:25;2.60;99.90
16076;DHT22;8142;48.242;11.644;2023-03-03T04:12:51;2.40;99.90
16076;DHT22;8142;48.242;11.644;2023-03-03T04:15:17;2.20;99.90
16076;DHT22;8142;48.242;11.644;2023-03-03T04:17:52;2.10;99.90
16076;DHT22;8142;48.242;11.644;2023-03-03T04:20:18;1.90;99.90
16076;DHT22;8142;48.242;11.644;2023-03-03T04:22:44;1.80;99.90
16076;DHT22;8142;48.242;11.644;2023-03-03T04:25:14;1.70;99.90
16076;DHT22;8142;48.242;11.644;2023-03-03T04:27:40;1.60;99.90
16076;DHT22;8142;48.242;11.644;2023-03-03T04:30:08;1.60;99.90
16076;DHT22;8142;48.242;11.644;2023-03-03T04:32:34;1.50;99.90
16076;DHT22;8142;48.242;11.644;2023-03-03T04:35:00;1.50;99.90
16076;DHT22;8142;48.242;11.644;2023-03-03T04:37:29;1.40;99.90
16076;DHT22;8142;48.242;11.644;2023-03-03T04:39:55;1.40;99.90
16076;DHT22;8142;48.242;11.644;2023-03-03T04:42:21;1.40;99.90
16076;DHT22;8142;48.242;11.644;2023-03-03T04:44:47;1.60;99.90
16076;DHT22;8142;48.242;11.644;2023-03-03T04:47:13;1.40;99.90
16076;DHT22;8142;48.242;11.644;2023-03-03T04:49:39;1.30;99.90
16076;DHT22;8142;48.242;11.644;2023-03-03T04:52:05;1.30;99.90
16076;DHT22;8142;48.242;11.644;2023-03-03T04:54:30;1.30;99.90
16076;DHT22;8142;48.242;11.644;2023-03-03T04:56:56;1.20;99.90
16076;DHT22;8142;48.242;11.644;2023-03-03T04:59:23;1.20;99.90
16076;DHT22;8142;48.242;11.644;2023-03-03T05:01:49;1.10;99.90
16076;DHT22;8142;48.242;11.644;2023-03-03T05:04:15;1.10;99.90
16076;DHT22;8142;48.242;11.644;2023-03-03T05:06:41;1.10;99.90
16076;DHT22;8142;48.242;11.644;2023-03-03T05:09:07;1.00;99.90
16076;DHT22;8142;48.242;11.644;2023-03-03T05:11:34;1.00;99.90
16076;DHT22;8142;48.242;11.644;2023-03-03T05:14:00;1.00;99.90
16076;DHT22;8142;48.242;11.644;2023-03-03T05:16:28;1.00;99.90
16076;DHT22;8142;48.242;11.644;2023-03-03T05:18:53;1.00;99.90
16076;DHT22;8142;48.242;11.644;2023-03-03T05:21:19;1.10;99.90
16076;DHT22;8142;48.242;11.644;2023-03-03T05:23:45;1.10;99.90
16076;DHT22;8142;48.242;11.644;2023-03-03T05:26:11;1.10;99.90
16076;DHT22;8142;48.242;11.644;2023-03-03T05:28:36;1.10;99.90
16076;DHT22;8142;48.242;11.644;2023-03-03T05:31:02;1.20;99.90
16076;DHT22;8142;48.242;11.644;2023-03-03T05:33:28;1.20;99.90
16076;DHT22;8142;48.242;11.644;2023-03-03T05:35:55;1.30;99.90
16076;DHT22;8142;48.242;11.644;2023-03-03T05:38:22;1.30;99.90
16076;DHT22;8142;48.242;11.644;2023-03-03T05:40:49;1.30;99.90
16076;DHT22;8142;48.242;11.644;2023-03-03T05:43:14;1.30;99.90
16076;DHT22;8142;48.242;11.644;2023-03-03T05:45:40;1.40;99.90
16076;DHT22;8142;48.242;11.644;2023-03-03T05:48:06;1.40;99.90
16076;DHT22;8142;48.242;11.644;2023-03-03T05:50:32;1.40;99.90
16076;DHT22;8142;48.242;11.644;2023-03-03T05:52:58;1.50;99.90
16076;DHT22;8142;48.242;11.644;2023-03-03T05:55:24;1.60;99.90
16076;DHT22;8142;48.242;11.644;2023-03-03T05:57:50;1.60;99.90
16076;DHT22;8142;48.242;11.644;2023-03-03T06:00:16;1.70;99.90
16076;DHT22;8142;48.242;11.644;2023-03-03T06:02:42;1.80;99.90
16076;DHT22;8142;48.242;11.644;2023-03-03T06:05:09;1.90;99.90
16076;DHT22;8142;48.242;11.644;2023-03-03T06:07:35;1.90;99.90
16076;DHT22;8142;48.242;11.644;2023-03-03T06:10:01;2.00;99.90
16076;DHT22;8142;48.242;11.644;2023-03-03T06:12:27;2.10;99.90
16076;DHT22;8142;48.242;11.644;2023-03-03T06:14:52;2.20;99.90
16076;DHT22;8142;48.242;11.644;2023-03-03T06:17:18;2.20;99.90
16076;DHT22;8142;48.242;11.644;2023-03-03T06:19:44;2.30;99.90
16076;DHT22;8142;48.242;11.644;2023-03-03T06:22:11;2.40;99.90
16076;DHT22;8142;48.242;11.644;2023-03-03T06:24:37;2.40;99.90
16076;DHT22;8142;48.242;11.644;2023-03-03T06:27:03;2.50;99.90
16076;DHT22;8142;48.242;11.644;2023-03-03T06:29:29;2.50;99.90
16076;DHT22;8142;48.242;11.644;2023-03-03T06:31:55;2.60;99.90
16076;DHT22;8142;48.242;11.644;2023-03-03T06:34:20;2.60;99.90
16076;DHT22;8142;48.242;11.644;2023-03-03T06:36:46;2.70;99.90
16076;DHT22;8142;48.242;11.644;2023-03-03T06:39:13;2.70;99.90
16076;DHT22;8142;48.242;11.644;2023-03-03T06:41:39;2.70;99.90
16076;DHT22;8142;48.242;11.644;2023-03-03T06:44:05;2.80;99.90
16076;DHT22;8142;48.242;11.644;2023-03-03T06:46:31;2.80;99.90
16076;DHT22;8142;48.242;11.644;2023-03-03T06:48:57;2.90;99.90
16076;DHT22;8142;48.242;11.644;2023-03-03T06:51:26;2.90;99.90
16076;DHT22;8142;48.242;11.644;2023-03-03T06:53:56;2.90;99.90
16076;DHT22;8142;48.242;11.644;2023-03-03T06:56:26;3.00;99.90
16076;DHT22;8142;48.242;11.644;2023-03-03T06:58:57;3.00;99.90
16076;DHT22;8142;48.242;11.644;2023-03-03T07:01:24;3.00;99.90
16076;DHT22;8142;48.242;11.644;2023-03-03T07:03:49;3.10;99.90
16076;DHT22;8142;48.242;11.644;2023-03-03T07:06:23;3.10;99.90
16076;DHT22;8142;48.242;11.644;2023-03-03T07:08:51;3.10;99.90
16076;DHT22;8142;48.242;11.644;2023-03-03T07:11:20;3.10;99.90
16076;DHT22;8142;48.242;11.644;2023-03-03T07:13:49;3.10;99.90
16076;DHT22;8142;48.242;11.644;2023-03-03T07:16:17;3.10;99.90
16076;DHT22;8142;48.242;11.644;2023-03-03T07:18:52;3.10;99.90
16076;DHT22;8142;48.242;11.644;2023-03-03T07:21:20;3.20;99.90
16076;DHT22;8142;48.242;11.644;2023-03-03T07:23:51;3.10;99.90
16076;DHT22;8142;48.242;11.644;2023-03-03T07:26:23;3.20;99.90
16076;DHT22;8142;48.242;11.644;2023-03-03T07:28:55;3.10;99.90
16076;DHT22;8142;48.242;11.644;2023-03-03T07:31:27;3.20;99.90
16076;DHT22;8142;48.242;11.644;2023-03-03T07:33:54;3.10;99.90
16076;DHT22;8142;48.242;11.644;2023-03-03T07:36:34;3.10;99.90
16076;DHT22;8142;48.242;11.644;2023-03-03T07:39:03;3.00;99.90
16076;DHT22;8142;48.242;11.644;2023-03-03T07:41:37;3.00;99.90
16076;DHT22;8142;48.242;11.644;2023-03-03T07:44:05;3.00;99.90
16076;DHT22;8142;48.242;11.644;2023-03-03T07:46:44;3.00;99.90
16076;DHT22;8142;48.242;11.644;2023-03-03T07:51:57;3.00;99.90
16076;DHT22;8142;48.242;11.644;2023-03-03T07:54:39;3.10;99.90
16076;DHT22;8142;48.242;11.644;2023-03-03T08:02:39;3.20;99.90
16076;DHT22;8142;48.242;11.644;2023-03-03T08:05:35;3.20;99.90
16076;DHT22;8142;48.242;11.644;2023-03-03T08:11:15;3.30;99.90
16076;DHT22;8142;48.242;11.644;2023-03-03T08:13:23;3.30;99.90
16076;DHT22;8142;48.242;11.644;2023-03-03T08:16:00;3.40;99.90
16076;DHT22;8142;48.242;11.644;2023-03-03T08:18:28;3.40;99.90
16076;DHT22;8142;48.242;11.644;2023-03-03T08:21:00;3.50;99.90
16076;DHT22;8142;48.242;11.644;2023-03-03T08:23:26;3.50;99.90
16076;DHT22;8142;48.242;11.644;2023-03-03T08:25:52;3.50;99.90
16076;DHT22;8142;48.242;11.644;2023-03-03T08:28:19;3.60;99.90
16076;DHT22;8142;48.242;11.644;2023-03-03T08:30:46;3.60;99.90
16076;DHT22;8142;48.242;11.644;2023-03-03T08:33:12;3.70;99.90
16076;DHT22;8142;48.242;11.644;2023-03-03T08:35:39;3.70;99.90
16076;DHT22;8142;48.242;11.644;2023-03-03T08:38:05;3.80;99.90
16076;DHT22;8142;48.242;11.644;2023-03-03T08:40:33;3.80;99.90
16076;DHT22;8142;48.242;11.644;2023-03-03T08:42:59;3.90;99.90
16076;DHT22;8142;48.242;11.644;2023-03-03T08:45:26;3.90;99.90
16076;DHT22;8142;48.242;11.644;2023-03-03T08:47:52;3.90;99.90
16076;DHT22;8142;48.242;11.644;2023-03-03T08:50:18;3.90;99.90
16076;DHT22;8142;48.242;11.644;2023-03-03T08:52:44;4.00;99.90
16076;DHT22;8142;48.242;11.644;2023-03-03T08:55:10;4.00;99.90
16076;DHT22;8142;48.242;11.644;2023-03-03T08:57:36;4.10;99.90
16076;DHT22;8142;48.242;11.644;2023-03-03T09:00:05;4.10;99.90
16076;DHT22;8142;48.242;11.644;2023-03-03T09:02:31;4.10;99.90
16076;DHT22;8142;48.242;11.644;2023-03-03T09:04:57;4.20;99.90
16076;DHT22;8142;48.242;11.644;2023-03-03T09:07:23;4.20;99.90
16076;DHT22;8142;48.242;11.644;2023-03-03T09:09:49;4.20;99.90
16076;DHT22;8142;48.242;11.644;2023-03-03T09:12:18;4.30;99.90
16076;DHT22;8142;48.242;11.644;2023-03-03T09:14:45;4.40;99.90
16076;DHT22;8142;48.242;11.644;2023-03-03T09:17:26;4.40;99.90
16076;DHT22;8142;48.242;11.644;2023-03-03T09:19:58;4.40;99.90
16076;DHT22;8142;48.242;11.644;2023-03-03T09:22:25;4.50;99.90
16076;DHT22;8142;48.242;11.644;2023-03-03T09:24:53;4.50;99.90
16076;DHT22;8142;48.242;11.644;2023-03-03T09:27:28;4.50;99.90
16076;DHT22;8142;48.242;11.644;2023-03-03T09:29:59;4.60;99.90
16076;DHT22;8142;48.242;11.644;2023-03-03T09:32:36;4.60;99.90
16076;DHT22;8142;48.242;11.644;2023-03-03T09:35:36;4.60;99.90
16076;DHT22;8142;48.242;11.644;2023-03-03T09:38:26;4.70;99.90
16076;DHT22;8142;48.242;11.644;2023-03-03T09:46:54;4.80;99.90
16076;DHT22;8142;48.242;11.644;2023-03-03T09:49:33;4.80;99.90
16076;DHT22;8142;48.242;11.644;2023-03-03T09:52:02;4.90;99.90
16076;DHT22;8142;48.242;11.644;2023-03-03T10:10:44;5.00;99.90
16076;DHT22;8142;48.242;11.644;2023-03-03T10:16:21;5.10;99.90
16076;DHT22;8142;48.242;11.644;2023-03-03T10:18:57;5.10;99.90
16076;DHT22;8142;48.242;11.644;2023-03-03T10:32:34;5.30;99.90
16076;DHT22;8142;48.242;11.644;2023-03-03T10:35:38;5.30;99.90
16076;DHT22;8142;48.242;11.644;2023-03-03T10:49:17;5.40;99.90
16076;DHT22;8142;48.242;11.644;2023-03-03T10:54:29;5.40;99.90
16076;DHT22;8142;48.242;11.644;2023-03-03T11:11:33;5.70;99.90
16076;DHT22;8142;48.242;11.644;2023-03-03T11:14:12;5.80;99.90
16076;DHT22;8142;48.242;11.644;2023-03-03T11:17:05;5.80;99.90
16076;DHT22;8142;48.242;11.644;2023-03-03T11:20:00;5.80;99.90
16076;DHT22;8142;48.242;11.644;2023-03-03T11:22:47;5.90;99.90
16076;DHT22;8142;48.242;11.644;2023-03-03T11:25:31;5.90;99.90
16076;DHT22;8142;48.242;11.644;2023-03-03T11:28:24;5.90;99.90
16076;DHT22;8142;48.242;11.644;2023-03-03T11:36:17;6.00;99.90
16076;DHT22;8142;48.242;11.644;2023-03-03T11:39:04;6.00;99.90
16076;DHT22;8142;48.242;11.644;2023-03-03T11:41:41;6.00;99.90
16076;DHT22;8142;48.242;11.644;2023-03-03T11:44:36;6.00;99.90
16076;DHT22;8142;48.242;11.644;2023-03-03T11:52:43;6.10;99.90
16076;DHT22;8142;48.242;11.644;2023-03-03T11:55:32;6.10;99.90
16076;DHT22;8142;48.242;11.644;2023-03-03T12:13:54;6.30;99.90
16076;DHT22;8142;48.242;11.644;2023-03-03T12:21:55;6.40;99.90
16076;DHT22;8142;48.242;11.644;2023-03-03T12:39:32;6.60;99.90
16076;DHT22;8142;48.242;11.644;2023-03-03T12:42:51;6.80;99.90
16076;DHT22;8142;48.242;11.644;2023-03-03T12:47:34;6.70;99.90
16076;DHT22;8142;48.242;11.644;2023-03-03T12:52:56;6.70;99.90
16076;DHT22;8142;48.242;11.644;2023-03-03T13:01:08;6.70;99.90
16076;DHT22;8142;48.242;11.644;2023-03-03T13:03:51;6.70;99.90
16076;DHT22;8142;48.242;11.644;2023-03-03T13:06:45;6.70;99.90
16076;DHT22;8142;48.242;11.644;2023-03-03T13:25:57;6.30;99.90
16076;DHT22;8142;48.242;11.644;2023-03-03T13:31:20;6.30;99.90
16076;DHT22;8142;48.242;11.644;2023-03-03T13:33:53;6.30;99.90
16076;DHT22;8142;48.242;11.644;2023-03-03T13:36:24;6.30;99.90
16076;DHT22;8142;48.242;11.644;2023-03-03T13:38:53;6.40;99.90
16076;DHT22;8142;48.242;11.644;2023-03-03T13:41:28;6.40;99.90
16076;DHT22;8142;48.242;11.644;2023-03-03T13:44:01;6.40;99.90
16076;DHT22;8142;48.242;11.644;2023-03-03T13:49:40;6.30;99.90
16076;DHT22;8142;48.242;11.644;2023-03-03T13:52:12;6.30;99.90
16076;DHT22;8142;48.242;11.644;2023-03-03T13:54:58;6.30;99.90
16076;DHT22;8142;48.242;11.644;2023-03-03T14:00:23;6.40;99.90
16076;DHT22;8142;48.242;11.644;2023-03-03T14:03:21;6.50;99.90
16076;DHT22;8142;48.242;11.644;2023-03-03T14:05:56;6.60;99.90
16076;DHT22;8142;48.242;11.644;2023-03-03T14:11:22;6.50;99.90
16076;DHT22;8142;48.242;11.644;2023-03-03T14:13:59;6.50;99.90
16076;DHT22;8142;48.242;11.644;2023-03-03T14:16:37;6.50;99.90
16076;DHT22;8142;48.242;11.644;2023-03-03T14:28:08;6.60;99.90
16076;DHT22;8142;48.242;11.644;2023-03-03T14:30:36;6.60;99.90
16076;DHT22;8142;48.242;11.644;2023-03-03T14:38:46;6.80;99.90
16076;DHT22;8142;48.242;11.644;2023-03-03T14:46:32;6.80;99.90
16076;DHT22;8142;48.242;11.644;2023-03-03T14:49:00;6.90;99.90
16076;DHT22;8142;48.242;11.644;2023-03-03T14:51:47;6.90;99.90
16076;DHT22;8142;48.242;11.644;2023-03-03T14:54:26;6.90;99.90
16076;DHT22;8142;48.242;11.644;2023-03-03T14:59:24;6.90;99.90
16076;DHT22;8142;48.242;11.644;2023-03-03T15:04:46;6.90;99.90
16076;DHT22;8142;48.242;11.644;2023-03-03T15:07:33;6.90;99.90
16076;DHT22;8142;48.242;11.644;2023-03-03T15:10:00;7.00;99.90
16076;DHT22;8142;48.242;11.644;2023-03-03T15:12:35;7.00;99.90
16076;DHT22;8142;48.242;11.644;2023-03-03T15:20:40;7.10;99.90
16076;DHT22;8142;48.242;11.644;2023-03-03T15:28:35;7.10;99.90
16076;DHT22;8142;48.242;11.644;2023-03-03T15:31:21;7.10;99.90
16076;DHT22;8142;48.242;11.644;2023-03-03T15:36:46;7.20;99.90
16076;DHT22;8142;48.242;11.644;2023-03-03T15:39:35;7.30;99.90
16076;DHT22;8142;48.242;11.644;2023-03-03T15:42:12;7.30;99.90
16076;DHT22;8142;48.242;11.644;2023-03-03T15:45:13;7.30;99.90
16076;DHT22;8142;48.242;11.644;2023-03-03T15:48:07;7.40;99.90
16076;DHT22;8142;48.242;11.644;2023-03-03T15:51:00;7.40;99.90
16076;DHT22;8142;48.242;11.644;2023-03-03T16:02:19;7.40;99.90
16076;DHT22;8142;48.242;11.644;2023-03-03T16:05:00;7.40;99.90
16076;DHT22;8142;48.242;11.644;2023-03-03T16:08:10;7.40;99.90
16076;DHT22;8142;48.242;11.644;2023-03-03T16:15:56;7.30;99.90
16076;DHT22;8142;48.242;11.644;2023-03-03T16:23:50;7.20;99.90
16076;DHT22;8142;48.242;11.644;2023-03-03T16:31:49;7.20;99.90
16076;DHT22;8142;48.242;11.644;2023-03-03T16:37:28;7.20;99.90
16076;DHT22;8142;48.242;11.644;2023-03-03T16:40:19;7.20;99.90
16076;DHT22;8142;48.242;11.644;2023-03-03T16:42:49;7.20;99.90
16076;DHT22;8142;48.242;11.644;2023-03-03T16:45:32;7.10;99.90
16076;DHT22;8142;48.242;11.644;2023-03-03T16:55:48;7.10;99.90
16076;DHT22;8142;48.242;11.644;2023-03-03T16:58:49;7.10;99.90
16076;DHT22;8142;48.242;11.644;2023-03-03T17:01:54;7.00;99.90
16076;DHT22;8142;48.242;11.644;2023-03-03T17:09:51;6.90;99.90
16076;DHT22;8142;48.242;11.644;2023-03-03T17:15:15;6.80;99.90
16076;DHT22;8142;48.242;11.644;2023-03-03T17:20:38;6.70;99.90
16076;DHT22;8142;48.242;11.644;2023-03-03T17:23:26;6.70;99.90
16076;DHT22;8142;48.242;11.644;2023-03-03T17:26:38;6.70;99.90
16076;DHT22;8142;48.242;11.644;2023-03-03T17:35:24;6.60;99.90
16076;DHT22;8142;48.242;11.644;2023-03-03T17:43:56;6.40;99.90
16076;DHT22;8142;48.242;11.644;2023-03-03T17:46:41;6.40;99.90
16076;DHT22;8142;48.242;11.644;2023-03-03T18:05:47;6.10;99.90
16076;DHT22;8142;48.242;11.644;2023-03-03T18:24:35;5.00;99.90
16076;DHT22;8142;48.242;11.644;2023-03-03T18:35:39;4.50;99.90
16076;DHT22;8142;48.242;11.644;2023-03-03T18:41:09;4.30;99.90
16076;DHT22;8142;48.242;11.644;2023-03-03T18:49:00;4.20;99.90
16076;DHT22;8142;48.242;11.644;2023-03-03T18:54:24;4.10;99.90
16076;DHT22;8142;48.242;11.644;2023-03-03T19:04:55;4.20;99.90
16076;DHT22;8142;48.242;11.644;2023-03-03T19:07:31;4.20;99.90
16076;DHT22;8142;48.242;11.644;2023-03-03T19:12:59;4.40;99.90
16076;DHT22;8142;48.242;11.644;2023-03-03T19:18:23;4.40;99.90
16076;DHT22;8142;48.242;11.644;2023-03-03T19:20:59;4.50;99.90
16076;DHT22;8142;48.242;11.644;2023-03-03T19:34:35;4.70;99.90
16076;DHT22;8142;48.242;11.644;2023-03-03T19:40:02;4.70;99.90
16076;DHT22;8142;48.242;11.644;2023-03-03T19:42:53;4.70;99.90
16076;DHT22;8142;48.242;11.644;2023-03-03T19:48:05;4.80;99.90
16076;DHT22;8142;48.242;11.644;2023-03-03T19:53:33;4.70;99.90
16076;DHT22;8142;48.242;11.644;2023-03-03T19:56:14;4.70;99.90
16076;DHT22;8142;48.242;11.644;2023-03-03T19:59:11;4.70;99.90
16076;DHT22;8142;48.242;11.644;2023-03-03T20:04:50;4.70;99.90
16076;DHT22;8142;48.242;11.644;2023-03-03T20:09:54;4.70;99.90
16076;DHT22;8142;48.242;11.644;2023-03-03T20:21:13;4.60;99.90
16076;DHT22;8142;48.242;11.644;2023-03-03T20:29:22;4.50;99.90
16076;DHT22;8142;48.242;11.644;2023-03-03T20:48:15;4.40;99.90
16076;DHT22;8142;48.242;11.644;2023-03-03T20:59:17;4.30;99.90
16076;DHT22;8142;48.242;11.644;2023-03-03T21:04:44;4.30;99.90
16076;DHT22;8142;48.242;11.644;2023-03-03T21:07:25;4.30;99.90
16076;DHT22;8142;48.242;11.644;2023-03-03T21:10:10;4.30;99.90
16076;DHT22;8142;48.242;11.644;2023-03-03T21:12:36;4.20;99.90
16076;DHT22;8142;48.242;11.644;2023-03-03T21:15:10;4.20;99.90
16076;DHT22;8142;48.242;11.644;2023-03-03T21:17:45;4.20;99.90
16076;DHT22;8142;48.242;11.644;2023-03-03T21:20:30;4.20;99.90
16076;DHT22;8142;48.242;11.644;2023-03-03T21:22:58;4.20;99.90
16076;DHT22;8142;48.242;11.644;2023-03-03T21:31:14;4.10;99.90
16076;DHT22;8142;48.242;11.644;2023-03-03T21:33:47;4.10;99.90
16076;DHT22;8142;48.242;11.644;2023-03-03T21:36:19;4.10;99.90
16076;DHT22;8142;48.242;11.644;2023-03-03T21:38:49;4.10;99.90
16076;DHT22;8142;48.242;11.644;2023-03-03T21:41:16;4.10;99.90
16076;DHT22;8142;48.242;11.644;2023-03-03T21:43:47;4.10;99.90
16076;DHT22;8142;48.242;11.644;2023-03-03T21:46:20;4.10;99.90
16076;DHT22;8142;48.242;11.644;2023-03-03T21:48:46;4.20;99.90
16076;DHT22;8142;48.242;11.644;2023-03-03T21:51:12;4.20;99.90
16076;DHT22;8142;48.242;11.644;2023-03-03T21:53:42;4.10;99.90
16076;DHT22;8142;48.242;11.644;2023-03-03T21:56:11;4.10;99.90
16076;DHT22;8142;48.242;11.644;2023-03-03T21:58:41;4.10;99.90
16076;DHT22;8142;48.242;11.644;2023-03-03T22:01:08;4.00;99.90
16076;DHT22;8142;48.242;11.644;2023-03-03T22:03:34;4.10;99.90
16076;DHT22;8142;48.242;11.644;2023-03-03T22:06:00;4.10;99.90
16076;DHT22;8142;48.242;11.644;2023-03-03T22:08:29;4.00;99.90
16076;DHT22;8142;48.242;11.644;2023-03-03T22:10:55;4.00;99.90
16076;DHT22;8142;48.242;11.644;2023-03-03T22:13:23;4.00;99.90
16076;DHT22;8142;48.242;11.644;2023-03-03T22:15:50;4.00;99.90
16076;DHT22;8142;48.242;11.644;2023-03-03T22:18:17;4.00;99.90
16076;DHT22;8142;48.242;11.644;2023-03-03T22:20:46;3.90;99.90
16076;DHT22;8142;48.242;11.644;2023-03-03T22:23:14;3.90;99.90
16076;DHT22;8142;48.242;11.644;2023-03-03T22:25:40;4.00;99.90
16076;DHT22;8142;48.242;11.644;2023-03-03T22:28:07;3.90;99.90
16076;DHT22;8142;48.242;11.644;2023-03-03T22:30:32;3.90;99.90
16076;DHT22;8142;48.242;11.644;2023-03-03T22:32:58;3.90;99.90
16076;DHT22;8142;48.242;11.644;2023-03-03T22:35:24;3.90;99.90
16076;DHT22;8142;48.242;11.644;2023-03-03T22:37:50;3.90;99.90
16076;DHT22;8142;48.242;11.644;2023-03-03T22:40:16;3.90;99.90
16076;DHT22;8142;48.242;11.644;2023-03-03T22:42:42;3.90;99.90
16076;DHT22;8142;48.242;11.644;2023-03-03T22:45:08;3.90;99.90
16076;DHT22;8142;48.242;11.644;2023-03-03T22:47:35;3.90;99.90
16076;DHT22;8142;48.242;11.644;2023-03-03T22:50:01;3.90;99.90
16076;DHT22;8142;48.242;11.644;2023-03-03T22:52:27;3.90;99.90
16076;DHT22;8142;48.242;11.644;2023-03-03T22:54:53;3.90;99.90
16076;DHT22;8142;48.242;11.644;2023-03-03T22:57:19;3.80;99.90
16076;DHT22;8142;48.242;11.644;2023-03-03T22:59:45;3.80;99.90
16076;DHT22;8142;48.242;11.644;2023-03-03T23:02:10;3.80;99.90
16076;DHT22;8142;48.242;11.644;2023-03-03T23:04:36;3.80;99.90